createdAt,value
2022-11-09T00:01:59.218Z,16.40
2022-11-09T00:04:27.670Z,16.60
2022-11-09T00:07:02.969Z,16.50
2022-11-09T00:09:38.538Z,16.60
2022-11-09T00:12:07.864Z,16.20
2022-11-09T00:14:39.177Z,16.40
2022-11-09T00:17:11.765Z,16.40
2022-11-09T00:19:40.847Z,16.50
2022-11-09T00:22:08.840Z,16.50
2022-11-09T00:24:37.021Z,16.10
2022-11-09T00:27:05.389Z,16.10
2022-11-09T00:29:40.935Z,16.20
2022-11-09T00:32:11.365Z,16.40
2022-11-09T00:34:39.568Z,16.30
2022-11-09T00:37:07.585Z,16.40
2022-11-09T00:39:39.331Z,16.40
2022-11-09T00:42:08.005Z,16.20
2022-11-09T00:44:35.966Z,16.20
2022-11-09T00:47:04.959Z,16.40
2022-11-09T00:49:37.201Z,16.10
2022-11-09T00:52:06.166Z,16.10
2022-11-09T00:54:34.193Z,16.20
2022-11-09T00:57:02.661Z,16.40
2022-11-09T00:59:57.953Z,16.30
2022-11-09T01:02:26.613Z,16.40
2022-11-09T01:04:55.986Z,16.50
2022-11-09T01:07:24.856Z,16.60
2022-11-09T01:09:54.719Z,16.60
2022-11-09T01:12:29.073Z,16.80
2022-11-09T01:14:57.105Z,16.20
2022-11-09T01:17:25.667Z,16.20
2022-11-09T01:19:58.236Z,16.30
2022-11-09T01:22:26.291Z,16.30
2022-11-09T01:24:56.199Z,16.30
2022-11-09T01:27:26.684Z,16.30
2022-11-09T01:32:37.639Z,16.20
2022-11-09T01:35:10.767Z,16.00
2022-11-09T01:37:40.137Z,16.20
2022-11-09T01:40:12.111Z,16.20
2022-11-09T01:42:41.411Z,16.30
2022-11-09T01:45:32.742Z,16.20
2022-11-09T01:48:06.444Z,16.50
2022-11-09T01:50:44.695Z,16.40
2022-11-09T01:53:19.380Z,16.10
2022-11-09T01:55:51.312Z,16.40
2022-11-09T01:58:26.492Z,16.30
2022-11-09T02:00:57.061Z,16.20
2022-11-09T02:03:30.753Z,15.80
2022-11-09T02:06:07.448Z,15.90
2022-11-09T02:08:37.561Z,16.00
2022-11-09T02:11:10.402Z,16.10
2022-11-09T02:13:42.846Z,16.10
2022-11-09T02:16:13.410Z,16.20
2022-11-09T02:18:54.509Z,16.40
2022-11-09T02:21:31.142Z,16.50
2022-11-09T02:24:03.385Z,16.20
2022-11-09T02:26:35.437Z,16.60
2022-11-09T02:29:08.826Z,16.80
2022-11-09T02:31:40.154Z,16.60
2022-11-09T02:34:12.317Z,16.30
2022-11-09T02:36:43.456Z,16.60
2022-11-09T02:39:19.305Z,16.30
2022-11-09T02:42:19.924Z,16.30
2022-11-09T02:44:57.682Z,16.00
2022-11-09T02:47:26.096Z,16.10
2022-11-09T02:49:54.177Z,16.10
2022-11-09T02:52:26.869Z,16.30
2022-11-09T02:54:55.913Z,16.20
2022-11-09T02:57:23.937Z,15.80
2022-11-09T02:59:56.613Z,15.90
2022-11-09T03:02:27.123Z,15.70
2022-11-09T03:04:56.226Z,16.00
2022-11-09T03:07:28.674Z,15.70
2022-11-09T03:09:58.099Z,15.80
2022-11-09T03:12:30.151Z,15.70
2022-11-09T03:15:08.410Z,15.70
2022-11-09T03:17:40.478Z,15.60
2022-11-09T03:20:10.618Z,15.60
2022-11-09T03:22:44.311Z,15.60
2022-11-09T03:25:14.199Z,15.60
2022-11-09T03:27:44.648Z,15.40
2022-11-09T03:30:14.881Z,15.40
2022-11-09T03:32:50.242Z,15.60
2022-11-09T03:35:21.547Z,15.60
2022-11-09T03:37:56.213Z,15.60
2022-11-09T03:40:26.283Z,15.40
2022-11-09T03:42:57.160Z,15.30
2022-11-09T03:45:28.172Z,15.50
2022-11-09T03:47:59.898Z,15.80
2022-11-09T03:50:29.464Z,15.90
2022-11-09T03:53:02.021Z,15.70
2022-11-09T03:55:38.642Z,15.90
2022-11-09T03:58:08.829Z,16.00
2022-11-09T04:00:40.329Z,16.00
2022-11-09T04:03:08.542Z,15.90
2022-11-09T04:05:39.052Z,15.50
2022-11-09T04:08:14.352Z,15.90
2022-11-09T04:10:43.025Z,15.80
2022-11-09T04:13:11.878Z,15.90
2022-11-09T04:15:40.298Z,16.20
2022-11-09T04:18:08.738Z,15.90
2022-11-09T04:20:36.922Z,16.00
2022-11-09T04:23:08.950Z,16.10
2022-11-09T04:25:39.108Z,16.30
2022-11-09T04:28:09.798Z,16.50
2022-11-09T04:30:38.374Z,16.40
2022-11-09T04:33:07.057Z,16.10
2022-11-09T04:35:36.287Z,16.20
2022-11-09T04:38:05.956Z,16.00
2022-11-09T04:40:41.362Z,15.50
2022-11-09T04:43:13.293Z,15.60
2022-11-09T04:45:42.209Z,16.10
2022-11-09T04:48:12.655Z,16.10
2022-11-09T04:50:41.538Z,16.00
2022-11-09T04:53:13.994Z,16.10
2022-11-09T04:55:43.680Z,16.20
2022-11-09T04:58:12.123Z,15.90
2022-11-09T05:00:41.281Z,16.00
2022-11-09T05:03:09.562Z,16.00
2022-11-09T05:05:44.033Z,16.20
2022-11-09T05:08:17.777Z,16.20
2022-11-09T05:13:29.720Z,15.70
2022-11-09T05:16:01.244Z,16.00
2022-11-09T05:18:30.286Z,16.00
2022-11-09T05:20:59.982Z,15.80
2022-11-09T05:26:32.103Z,16.00
2022-11-09T05:29:01.501Z,16.10
2022-11-09T05:31:30.154Z,15.90
2022-11-09T05:33:59.737Z,15.30
2022-11-09T05:36:29.068Z,15.50
2022-11-09T05:38:58.310Z,15.60
2022-11-09T05:41:27.139Z,15.70
2022-11-09T05:43:56.593Z,15.70
2022-11-09T05:46:27.511Z,15.60
2022-11-09T05:48:56.362Z,15.60
2022-11-09T05:51:26.490Z,15.50
2022-11-09T05:53:54.574Z,15.50
2022-11-09T05:56:23.039Z,15.40
2022-11-09T05:58:51.124Z,15.50
2022-11-09T06:01:20.957Z,15.70
2022-11-09T06:03:49.990Z,15.30
2022-11-09T06:06:18.423Z,15.30
2022-11-09T06:08:46.938Z,15.20
2022-11-09T06:11:21.807Z,15.40
2022-11-09T06:13:52.031Z,15.40
2022-11-09T06:16:25.930Z,15.50
2022-11-09T06:18:53.980Z,15.50
2022-11-09T06:21:22.023Z,15.80
2022-11-09T06:23:50.866Z,15.70
2022-11-09T06:26:18.880Z,16.00
2022-11-09T06:28:47.472Z,15.70
2022-11-09T06:31:17.724Z,15.70
2022-11-09T06:33:48.196Z,15.50
2022-11-09T06:36:16.247Z,15.50
2022-11-09T06:38:44.253Z,15.40
2022-11-09T06:41:13.236Z,15.60
2022-11-09T06:43:41.367Z,15.70
2022-11-09T06:46:11.852Z,15.50
2022-11-09T06:48:40.318Z,15.70
2022-11-09T06:51:11.370Z,15.50
2022-11-09T06:53:43.377Z,15.50
2022-11-09T06:56:12.163Z,15.40
2022-11-09T06:58:41.387Z,15.50
2022-11-09T07:01:10.666Z,15.40
2022-11-09T07:03:39.519Z,15.30
2022-11-09T07:06:10.836Z,15.30
2022-11-09T07:08:41.661Z,15.30
2022-11-09T07:11:14.373Z,15.60
2022-11-09T07:13:43.191Z,15.60
2022-11-09T07:16:12.848Z,15.50
2022-11-09T07:18:43.985Z,15.60
2022-11-09T07:21:14.604Z,15.80
2022-11-09T07:23:43.865Z,15.80
2022-11-09T07:26:14.707Z,15.80
2022-11-09T07:28:43.820Z,15.70
2022-11-09T07:31:13.822Z,15.70
2022-11-09T07:33:44.218Z,15.70
2022-11-09T07:36:20.910Z,15.60
2022-11-09T07:38:49.962Z,15.30
2022-11-09T07:41:18.340Z,15.20
2022-11-09T07:43:49.713Z,15.00
2022-11-09T07:46:21.028Z,15.00
2022-11-09T07:48:51.505Z,14.90
2022-11-09T07:51:22.321Z,14.60
2022-11-09T07:53:50.526Z,14.60
2022-11-09T07:56:21.737Z,14.60
2022-11-09T07:58:51.474Z,14.60
2022-11-09T08:01:19.594Z,14.50
2022-11-09T08:03:50.204Z,14.50
2022-11-09T08:06:19.119Z,14.70
2022-11-09T08:08:49.461Z,14.70
2022-11-09T08:11:19.197Z,14.80
2022-11-09T08:13:47.400Z,14.60
2022-11-09T08:16:15.468Z,14.80
2022-11-09T08:18:44.116Z,15.00
2022-11-09T08:21:12.701Z,14.90
2022-11-09T08:23:43.863Z,14.90
2022-11-09T08:26:14.140Z,14.70
2022-11-09T08:28:42.276Z,14.80
2022-11-09T08:31:10.726Z,14.80
2022-11-09T08:33:41.426Z,15.10
2022-11-09T08:36:11.161Z,15.20
2022-11-09T08:38:39.909Z,14.90
2022-11-09T08:41:13.266Z,15.20
2022-11-09T08:43:45.872Z,15.50
2022-11-09T08:46:14.519Z,15.70
2022-11-09T08:48:42.514Z,15.90
2022-11-09T08:51:11.124Z,15.80
2022-11-09T08:53:39.180Z,15.40
2022-11-09T08:56:08.210Z,15.50
2022-11-09T08:58:36.867Z,15.60
2022-11-09T09:01:13.891Z,15.80
2022-11-09T09:03:44.647Z,15.60
2022-11-09T09:06:15.275Z,15.60
2022-11-09T09:08:45.044Z,15.50
2022-11-09T09:11:13.520Z,15.40
2022-11-09T09:13:43.583Z,15.50
2022-11-09T09:16:16.684Z,15.40
2022-11-09T09:18:45.124Z,15.40
2022-11-09T09:21:13.422Z,15.50
2022-11-09T09:23:41.943Z,15.70
2022-11-09T09:26:10.102Z,15.90
2022-11-09T09:28:41.402Z,15.70
2022-11-09T09:31:17.246Z,15.50
2022-11-09T09:33:53.539Z,15.10
2022-11-09T09:36:27.201Z,15.40
2022-11-09T09:38:56.053Z,15.30
2022-11-09T09:41:29.891Z,15.60
2022-11-09T09:44:04.734Z,15.20
2022-11-09T09:46:40.036Z,15.40
2022-11-09T09:49:15.503Z,15.40
2022-11-09T09:51:57.349Z,15.30
2022-11-09T09:54:31.159Z,15.50
2022-11-09T09:57:04.259Z,15.60
2022-11-09T09:59:39.783Z,15.70
2022-11-09T10:02:19.800Z,15.80
2022-11-09T10:04:49.695Z,15.60
2022-11-09T10:07:23.975Z,15.40
2022-11-09T10:10:23.716Z,15.60
2022-11-09T10:13:17.958Z,15.80
2022-11-09T10:15:50.438Z,15.70
2022-11-09T10:18:34.225Z,15.70
2022-11-09T10:21:16.465Z,15.70
2022-11-09T10:23:54.429Z,15.90
2022-11-09T10:26:28.432Z,16.30
2022-11-09T10:29:15.779Z,16.10
2022-11-09T10:31:46.774Z,16.00
2022-11-09T10:34:20.269Z,15.70
2022-11-09T10:36:59.705Z,15.90
2022-11-09T10:39:38.957Z,16.20
2022-11-09T10:42:25.549Z,15.80
2022-11-09T10:45:25.069Z,16.10
2022-11-09T10:48:14.006Z,16.30
2022-11-09T10:51:03.635Z,16.20
2022-11-09T10:54:15.356Z,16.20
2022-11-09T10:57:10.867Z,15.90
2022-11-09T10:59:59.066Z,15.90
2022-11-09T11:02:48.172Z,15.70
2022-11-09T11:05:37.374Z,15.50
2022-11-09T11:08:32.356Z,15.60
2022-11-09T11:11:33.817Z,16.10
2022-11-09T11:14:31.935Z,16.60
2022-11-09T11:17:28.910Z,16.90
2022-11-09T11:20:35.163Z,17.00
2022-11-09T11:23:24.440Z,17.40
2022-11-09T11:26:36.947Z,18.40
2022-11-09T11:29:31.887Z,19.10
2022-11-09T11:32:21.525Z,20.00
2022-11-09T11:35:17.527Z,19.80
2022-11-09T11:38:18.335Z,19.40
2022-11-09T11:41:37.608Z,19.80
2022-11-09T11:44:39.630Z,20.20
2022-11-09T11:47:29.514Z,20.70
2022-11-09T11:50:37.796Z,20.70
2022-11-09T11:53:43.362Z,21.20
2022-11-09T11:59:58.458Z,21.00
2022-11-09T12:03:15.809Z,19.70
2022-11-09T12:06:35.465Z,19.70
2022-11-09T12:09:33.651Z,19.40
2022-11-09T12:12:38.374Z,18.90
2022-11-09T12:15:43.731Z,19.90
2022-11-09T12:18:41.471Z,19.90
2022-11-09T12:21:35.811Z,20.30
2022-11-09T12:24:29.770Z,19.80
2022-11-09T12:27:35.019Z,19.60
2022-11-09T12:30:24.323Z,20.00
2022-11-09T12:33:20.837Z,19.30
2022-11-09T12:36:13.128Z,19.10
2022-11-09T12:39:05.501Z,19.30
2022-11-09T12:41:56.274Z,19.80
2022-11-09T12:44:47.978Z,19.40
2022-11-09T12:47:42.411Z,19.50
2022-11-09T12:50:45.963Z,19.70
2022-11-09T12:53:37.958Z,19.20
2022-11-09T12:56:32.783Z,18.60
2022-11-09T12:59:36.341Z,18.10
2022-11-09T13:02:33.329Z,18.00
2022-11-09T13:05:34.575Z,17.40
2022-11-09T13:08:31.423Z,17.10
2022-11-09T13:11:23.982Z,17.30
2022-11-09T13:14:44.676Z,17.30
2022-11-09T13:18:00.775Z,17.50
2022-11-09T13:20:55.266Z,17.50
2022-11-09T13:24:03.900Z,16.90
2022-11-09T13:27:02.316Z,16.60
2022-11-09T13:29:56.138Z,16.30
2022-11-09T13:33:25.154Z,16.20
2022-11-09T13:36:20.932Z,16.20
2022-11-09T13:39:32.522Z,16.40
2022-11-09T13:42:28.110Z,16.20
2022-11-09T13:45:31.065Z,16.30
2022-11-09T13:48:46.163Z,16.30
2022-11-09T13:51:45.476Z,16.10
2022-11-09T13:54:35.205Z,16.00
2022-11-09T13:57:24.715Z,16.20
2022-11-09T14:00:23.115Z,15.90
2022-11-09T14:03:23.549Z,16.20
2022-11-09T14:06:13.546Z,16.40
2022-11-09T14:09:02.937Z,16.80
2022-11-09T14:12:08.764Z,16.80
2022-11-09T14:15:23.314Z,16.20
2022-11-09T14:18:19.650Z,16.10
2022-11-09T14:21:15.789Z,15.80
2022-11-09T14:24:04.805Z,15.70
2022-11-09T14:27:03.848Z,15.80
2022-11-09T14:29:54.235Z,16.10
2022-11-09T14:32:41.749Z,15.80
2022-11-09T14:35:31.610Z,15.80
2022-11-09T14:38:22.327Z,15.90
2022-11-09T14:41:22.363Z,16.00
2022-11-09T14:44:22.317Z,15.90
2022-11-09T14:47:18.222Z,16.10
2022-11-09T14:50:06.307Z,15.70
2022-11-09T14:52:57.415Z,15.50
2022-11-09T14:55:47.644Z,15.60
2022-11-09T14:58:37.767Z,15.50
2022-11-09T15:01:36.554Z,15.60
2022-11-09T15:04:26.909Z,15.50
2022-11-09T15:07:19.602Z,15.50
2022-11-09T15:10:10.242Z,15.70
2022-11-09T15:13:03.994Z,15.60
2022-11-09T15:15:55.544Z,15.60
2022-11-09T15:18:47.867Z,15.40
2022-11-09T15:21:37.792Z,15.80
2022-11-09T15:24:26.395Z,15.70
2022-11-09T15:27:34.668Z,15.60
2022-11-09T15:30:34.086Z,15.60
2022-11-09T15:33:25.290Z,15.90
2022-11-09T15:36:33.895Z,15.50
2022-11-09T15:39:22.048Z,15.60
2022-11-09T15:42:13.661Z,15.30
2022-11-09T15:45:01.660Z,15.40
2022-11-09T15:47:54.527Z,15.50
2022-11-09T15:50:48.663Z,15.40
2022-11-09T15:53:37.590Z,15.00
2022-11-09T15:56:25.494Z,14.90
2022-11-09T15:59:22.321Z,15.00
2022-11-09T16:05:13.009Z,14.90
2022-11-09T16:08:01.429Z,14.70
2022-11-09T16:10:50.613Z,14.80
2022-11-09T16:13:37.809Z,14.80
2022-11-09T16:16:25.574Z,15.00
2022-11-09T16:19:22.342Z,15.00
2022-11-09T16:22:09.190Z,14.70
2022-11-09T16:24:58.903Z,14.70
2022-11-09T16:27:51.276Z,14.90
2022-11-09T16:30:58.016Z,14.70
2022-11-09T16:33:45.282Z,14.80
2022-11-09T16:36:34.783Z,14.80
2022-11-09T16:39:22.474Z,14.50
2022-11-09T16:42:12.537Z,14.80
2022-11-09T16:45:09.351Z,15.00
2022-11-09T16:47:57.286Z,15.00
2022-11-09T16:50:45.154Z,15.20
2022-11-09T16:53:33.930Z,15.20
2022-11-09T16:56:21.360Z,14.90
2022-11-09T16:59:11.595Z,14.90
2022-11-09T17:02:01.008Z,14.90
2022-11-09T17:04:47.865Z,15.00
2022-11-09T17:07:42.603Z,15.00
2022-11-09T17:10:29.455Z,15.00
2022-11-09T17:13:16.718Z,14.80
2022-11-09T17:16:06.204Z,14.80
2022-11-09T17:18:56.085Z,14.90
2022-11-09T17:21:43.083Z,14.50
2022-11-09T17:24:33.188Z,14.60
2022-11-09T17:27:21.102Z,14.70
2022-11-09T17:30:10.183Z,14.50
2022-11-09T17:32:56.975Z,14.40
2022-11-09T17:35:48.067Z,14.20
2022-11-09T17:38:35.860Z,14.50
2022-11-09T17:41:23.603Z,14.50
2022-11-09T17:44:12.808Z,14.30
2022-11-09T17:47:00.046Z,14.20
2022-11-09T17:49:47.519Z,14.40
2022-11-09T17:52:35.617Z,14.60
2022-11-09T17:55:23.413Z,14.60
2022-11-09T17:58:09.996Z,14.30
2022-11-09T18:00:59.628Z,14.40
2022-11-09T18:03:48.873Z,14.20
2022-11-09T18:06:36.681Z,14.20
2022-11-09T18:09:40.802Z,14.40
2022-11-09T18:12:28.462Z,14.10
2022-11-09T18:15:15.954Z,14.00
2022-11-09T18:18:02.916Z,14.10
2022-11-09T18:20:50.068Z,13.80
2022-11-09T18:23:38.028Z,13.80
2022-11-09T18:26:27.058Z,13.90
2022-11-09T18:29:13.742Z,13.80
2022-11-09T18:32:00.960Z,14.00
2022-11-09T18:34:47.695Z,14.10
2022-11-09T18:37:35.661Z,14.00
2022-11-09T18:40:23.129Z,14.00
2022-11-09T18:43:14.276Z,13.90
2022-11-09T18:46:03.727Z,13.90
2022-11-09T18:48:52.627Z,14.10
2022-11-09T18:51:39.822Z,14.10
2022-11-09T18:54:27.239Z,14.20
2022-11-09T18:57:19.628Z,13.80
2022-11-09T19:00:11.185Z,13.70
2022-11-09T19:02:58.489Z,14.00
2022-11-09T19:05:48.766Z,14.00
2022-11-09T19:08:55.147Z,13.90
2022-11-09T19:11:42.372Z,13.90
2022-11-09T19:14:30.182Z,13.90
2022-11-09T19:17:19.137Z,13.80
2022-11-09T19:20:07.221Z,13.80
2022-11-09T19:22:56.415Z,13.80
2022-11-09T19:25:45.186Z,13.70
2022-11-09T19:28:32.676Z,13.80
2022-11-09T19:31:21.323Z,13.70
2022-11-09T19:34:09.624Z,14.00
2022-11-09T19:36:56.581Z,13.80
2022-11-09T19:39:57.177Z,13.80
2022-11-09T19:42:45.089Z,14.00
2022-11-09T19:45:34.752Z,14.00
2022-11-09T19:48:21.654Z,13.80
2022-11-09T19:51:09.969Z,13.70
2022-11-09T19:53:58.909Z,13.80
2022-11-09T19:56:47.776Z,13.90
2022-11-09T19:59:36.973Z,13.90
2022-11-09T20:02:25.269Z,13.80
2022-11-09T20:05:11.641Z,13.70
2022-11-09T20:08:00.878Z,13.60
2022-11-09T20:10:47.395Z,13.70
2022-11-09T20:13:36.574Z,13.60
2022-11-09T20:16:25.901Z,13.60
2022-11-09T20:19:17.338Z,13.60
2022-11-09T20:22:04.909Z,13.50
2022-11-09T20:24:53.037Z,13.20
2022-11-09T20:27:41.498Z,13.40
2022-11-09T20:30:28.379Z,13.50
2022-11-09T20:33:15.340Z,13.50
2022-11-09T20:36:04.075Z,13.50
2022-11-09T20:38:54.595Z,13.40
2022-11-09T20:41:49.606Z,13.50
2022-11-09T20:44:44.557Z,13.60
2022-11-09T20:48:02.100Z,13.70
2022-11-09T20:50:40.473Z,13.30
2022-11-09T20:53:27.870Z,13.10
2022-11-09T20:56:15.132Z,13.20
2022-11-09T20:59:03.224Z,13.30
2022-11-09T21:01:52.210Z,13.40
2022-11-09T21:04:39.846Z,13.70
2022-11-09T21:07:26.934Z,13.40
2022-11-09T21:10:14.567Z,13.10
2022-11-09T21:13:01.538Z,13.30
2022-11-09T21:15:50.830Z,13.20
2022-11-09T21:18:39.433Z,13.40
2022-11-09T21:21:36.689Z,13.40
2022-11-09T21:24:44.407Z,13.50
2022-11-09T21:27:52.240Z,13.40
2022-11-09T21:30:42.636Z,13.20
2022-11-09T21:33:33.580Z,13.40
2022-11-09T21:36:20.802Z,13.30
2022-11-09T21:39:07.654Z,13.40
2022-11-09T21:41:56.930Z,13.30
2022-11-09T21:44:44.523Z,13.30
2022-11-09T21:47:32.831Z,13.20
2022-11-09T21:50:28.657Z,13.30
2022-11-09T21:53:17.049Z,13.20
2022-11-09T21:56:03.843Z,13.10
2022-11-09T21:58:51.274Z,12.80
2022-11-09T22:01:38.506Z,12.90
2022-11-09T22:04:26.090Z,13.00
2022-11-09T22:07:14.135Z,13.10
2022-11-09T22:10:16.703Z,12.80
2022-11-09T22:13:21.514Z,13.00
2022-11-09T22:16:11.402Z,12.90
2022-11-09T22:19:16.186Z,13.10
2022-11-09T22:22:06.097Z,13.10
2022-11-09T22:24:54.926Z,13.20
2022-11-09T22:27:42.659Z,13.30
2022-11-09T22:30:29.600Z,13.50
2022-11-09T22:33:26.935Z,13.10
2022-11-09T22:36:15.289Z,13.10
2022-11-09T22:39:01.989Z,12.90
2022-11-09T22:41:51.224Z,13.00
2022-11-09T22:44:37.652Z,13.30
2022-11-09T22:47:26.306Z,13.20
2022-11-09T22:50:13.201Z,13.00
2022-11-09T22:53:03.947Z,13.10
2022-11-09T22:55:56.569Z,13.10
2022-11-09T22:58:45.058Z,13.00
2022-11-09T23:01:33.045Z,13.20
2022-11-09T23:04:20.534Z,13.10
2022-11-09T23:07:07.855Z,13.00
2022-11-09T23:09:54.660Z,13.10
2022-11-09T23:12:42.536Z,13.20
2022-11-09T23:15:38.274Z,13.10
2022-11-09T23:18:47.006Z,13.10
2022-11-09T23:21:41.349Z,13.10
2022-11-09T23:24:46.576Z,13.10
2022-11-09T23:27:38.663Z,13.00
2022-11-09T23:30:25.490Z,13.30
2022-11-09T23:33:14.415Z,13.40
2022-11-09T23:36:02.975Z,13.10
2022-11-09T23:38:52.981Z,13.20
2022-11-09T23:41:40.194Z,13.00
2022-11-09T23:44:26.857Z,13.20
2022-11-09T23:47:18.298Z,12.90
2022-11-09T23:50:10.797Z,13.10
2022-11-09T23:53:02.412Z,13.20
2022-11-09T23:55:50.045Z,13.10
2022-11-09T23:58:38.562Z,13.10
